NCAR-RAP Real-Time Weather Data

Output produced by METARs form (08 May 2021  16:43 UTC)
found at http://weather.rap.ucar.edu/surface/
 
KNEW 081553Z 16008KT 120V190 10SM CLR 27/15 A3012 RMK AO2 SLP193 T02720150
KNEW 081453Z 17011KT 10SM CLR 27/14 A3012 RMK AO2 SLP191 T02670144 51006
KNEW 081353Z AUTO 14012KT 10SM CLR 26/15 A3011 RMK AO2 SLP190 T02560150
KNEW 081253Z AUTO 14007KT 10SM CLR 23/16 A3011 RMK AO2 SLP188 T02330156
KNEW 081153Z AUTO 13006KT 10SM CLR 22/16 A3010 RMK AO2 SLP185 T02170156 10233 20200 53004
KNEW 081053Z AUTO 14006KT 10SM CLR 21/14 A3009 RMK AO2 SLP181 T02060144
KNEW 080953Z AUTO 11004KT 10SM CLR 21/15 A3008 RMK AO2 SLP180 T02110150
KNEW 080853Z AUTO 09005KT 10SM CLR 22/15 A3008 RMK AO2 SLP181 T02170150 55001
KNEW 080753Z AUTO 11006KT 10SM CLR 22/14 A3008 RMK AO2 SLP179 T02170139
KNEW 080653Z AUTO 07008KT 10SM CLR 23/12 A3009 RMK AO2 SLP181 T02280122
KNEW 080553Z AUTO 08010KT 10SM CLR 23/13 A3009 RMK AO2 SLP182 T02280133 10278 20228 402890183 56003
KNEW 080453Z AUTO 07010KT 10SM CLR 24/13 A3009 RMK AO2 SLP182 T02390128
KNEW 080353Z AUTO 08009KT 10SM CLR 25/14 A3009 RMK AO2 SLP182 T02500139
KNEW 080253Z AUTO 03010KT 10SM CLR 26/13 A3010 RMK AO2 SLP184 T02610133 53009
KNEW 080153Z AUTO 02009KT 10SM CLR 26/14 A3008 RMK AO2 SLP179 T02610144
KNEW 080053Z 01010KT 10SM CLR 26/16 A3007 RMK AO2 SLP176 T02560156
KNEW 072353Z 35009KT 10SM CLR 28/14 A3007 RMK AO2 SLP175 T02780144 10289 20250 56010
KNEW 072253Z 29004KT 10SM CLR 27/13 A3007 RMK AO2 SLP177 T02720128
KNEW 072154Z 27007KT 10SM CLR 27/14 A3008 RMK AO2 SLP180 T02720144
KNEW 072053Z AUTO 26006KT 10SM CLR 27/12 A3010 RMK AO2 SLP186 T02720122 58021
KNEW 071953Z 27009KT 10SM CLR 27/14 A3013 RMK AO2 SLP196 T02720139
KNEW 071853Z 29009KT 10SM CLR 26/15 A3015 RMK AO2 SLP202 T02610150
KNEW 071753Z 30007KT 10SM CLR 25/15 A3016 RMK AO2 SLP207 T02500150 10250 20200 58009
KNEW 071653Z 30006KT 10SM CLR 24/15 A3019 RMK AO2 SLP217 T02440150
KNEW 071553Z 32007KT 10SM CLR 24/15 A3019 RMK AO2 SLP218 T02390150
KNEW 071453Z 32012KT 10SM CLR 24/15 A3019 RMK AO2 SLP216 T02390150 51018
KNEW 071353Z 32015KT 10SM CLR 24/14 A3018 RMK AO2 SLP212 T02440139
KNEW 071253Z 30007KT 10SM CLR 24/16 A3016 RMK AO2 SLP206 T02390156
KNEW 071153Z 30004KT 10SM CLR 20/15 A3014 RMK AO2 SLP198 T02000150 10239 20183 53012
KNEW 071053Z 26003KT 10SM CLR 21/16 A3011 RMK AO2 SLP190 T02110156
KNEW 070953Z 00000KT 10SM CLR 19/14 A3010 RMK AO2 SLP187 T01940139
KNEW 070853Z 00000KT 10SM CLR 21/13 A3010 RMK AO2 SLP186 T02060133 56010
KNEW 070753Z 01005KT 10SM CLR 23/13 A3010 RMK AO2 SLP187 T02280133
KNEW 070653Z 01009KT 10SM CLR 23/13 A3012 RMK AO2 SLP191 T02330133
KNEW 070553Z 02010KT 10SM CLR 24/13 A3013 RMK AO2 SLP196 T02390133 10267 20239 402720206 50005
KNEW 070453Z 01011KT 10SM CLR 24/13 A3013 RMK AO2 SLP197 T02390133
KNEW 070353Z 01012KT 10SM CLR 24/13 A3013 RMK AO2 SLP196 T02440133
KNEW 070253Z 36013KT 10SM CLR 24/13 A3012 RMK AO2 SLP191 T02440133 53017
KNEW 070153Z 36012KT 10SM CLR 25/13 A3009 RMK AO2 SLP182 T02500133
KNEW 070053Z 01012KT 10SM CLR 26/13 A3007 RMK AO2 SLP176 T02560128
KNEW 062353Z 33010KT 10SM CLR 26/16 A3007 RMK AO2 SLP174 T02560161 10272 20256 56009
KNEW 062253Z 32006KT 10SM CLR 27/14 A3007 RMK AO2 SLP175 T02670144
KNEW 062153Z 31009KT 10SM CLR 27/14 A3008 RMK AO2 SLP178 T02670144
KNEW 062053Z 27007KT 10SM CLR 26/15 A3009 RMK AO2 SLP183 T02610150 58017
KNEW 061953Z 31008KT 10SM CLR 26/16 A3011 RMK AO2 SLP189 T02560156
KNEW 061853Z 34007KT 10SM CLR 26/16 A3013 RMK AO2 SLP197 T02560161
KNEW 061753Z 01006KT 10SM CLR 26/16 A3014 RMK AO2 SLP200 T02560156 10261 20206 50002
KNEW 061653Z 02006KT 10SM CLR 26/16 A3015 RMK AO2 SLP204 T02560161